createdAt,value
2022-07-28T00:00:59.428Z,59.58
2022-07-28T00:01:59.490Z,59.58
2022-07-28T00:02:59.429Z,59.67
2022-07-28T00:03:59.407Z,59.58
2022-07-28T00:04:59.391Z,59.77
2022-07-28T00:05:59.482Z,59.96
2022-07-28T00:06:59.420Z,59.58
2022-07-28T00:07:59.408Z,59.58
2022-07-28T00:08:59.399Z,59.67
2022-07-28T00:10:00.715Z,59.58
2022-07-28T00:10:59.406Z,59.55
2022-07-28T00:11:59.400Z,59.86
2022-07-28T00:12:59.395Z,60.05
2022-07-28T00:13:59.392Z,60.35
2022-07-28T00:14:59.399Z,59.64
2022-07-28T00:15:59.483Z,59.67
2022-07-28T00:16:59.414Z,59.38
2022-07-28T00:17:59.434Z,59.64
2022-07-28T00:18:59.457Z,60.15
2022-07-28T00:19:59.390Z,60.82
2022-07-28T00:20:59.388Z,60.22
2022-07-28T00:21:59.392Z,60.92
2022-07-28T00:22:59.412Z,60.53
2022-07-28T00:23:59.388Z,61.18
2022-07-28T00:24:59.387Z,60.50
2022-07-28T00:25:59.396Z,60.41
2022-07-28T00:26:59.404Z,60.22
2022-07-28T00:27:59.400Z,60.41
2022-07-28T00:28:59.400Z,60.60
2022-07-28T00:29:59.407Z,60.22
2022-07-28T00:31:04.915Z,60.79
2022-07-28T00:31:59.431Z,60.60
2022-07-28T00:32:59.383Z,60.60
2022-07-28T00:33:59.384Z,59.74
2022-07-28T00:34:59.383Z,60.03
2022-07-28T00:35:59.404Z,59.93
2022-07-28T00:36:59.397Z,59.74
2022-07-28T00:37:59.409Z,59.74
2022-07-28T00:38:59.389Z,60.31
2022-07-28T00:39:59.388Z,60.50
2022-07-28T00:40:59.381Z,60.41
2022-07-28T00:41:59.397Z,60.60
2022-07-28T00:42:59.389Z,60.60
2022-07-28T00:43:59.377Z,60.31
2022-07-28T00:44:59.379Z,60.99
2022-07-28T00:45:59.401Z,60.79
2022-07-28T00:46:59.476Z,60.79
2022-07-28T00:47:59.382Z,60.79
2022-07-28T00:48:59.456Z,60.70
2022-07-28T00:49:59.383Z,60.60
2022-07-28T00:50:59.376Z,60.60
2022-07-28T00:51:59.373Z,60.89
2022-07-28T00:52:59.371Z,60.79
2022-07-28T00:53:59.380Z,60.89
2022-07-28T00:54:59.395Z,60.89
2022-07-28T00:56:02.569Z,60.60
2022-07-28T00:56:59.393Z,61.18
2022-07-28T00:57:59.385Z,60.79
2022-07-28T00:58:59.368Z,60.89
2022-07-28T00:59:59.377Z,60.89
2022-07-28T01:00:59.365Z,60.70
2022-07-28T01:01:59.485Z,61.18
2022-07-28T01:02:59.454Z,61.27
2022-07-28T01:03:59.369Z,61.18
2022-07-28T01:04:59.376Z,61.37
2022-07-28T01:05:59.371Z,61.08
2022-07-28T01:06:59.385Z,61.75
2022-07-28T01:07:59.371Z,61.75
2022-07-28T01:08:59.397Z,61.85
2022-07-28T01:09:59.386Z,61.75
2022-07-28T01:10:59.363Z,62.42
2022-07-28T01:11:59.376Z,62.42
2022-07-28T01:12:59.354Z,61.94
2022-07-28T01:13:59.387Z,62.33
2022-07-28T01:14:59.380Z,62.62
2022-07-28T01:15:59.410Z,62.33
2022-07-28T01:16:59.363Z,62.42
2022-07-28T01:17:59.357Z,62.42
2022-07-28T01:18:59.357Z,62.68
2022-07-28T01:19:59.357Z,62.87
2022-07-28T01:20:59.371Z,63.35
2022-07-28T01:21:59.371Z,62.68
2022-07-28T01:22:59.373Z,63.16
2022-07-28T01:23:59.387Z,63.19
2022-07-28T01:24:59.368Z,63.26
2022-07-28T01:25:59.376Z,63.16
2022-07-28T01:26:59.356Z,62.96
2022-07-28T01:27:59.368Z,63.26
2022-07-28T01:28:59.379Z,63.06
2022-07-28T01:29:59.349Z,62.59
2022-07-28T01:30:59.371Z,63.38
2022-07-28T01:31:59.350Z,63.83
2022-07-28T01:32:59.353Z,63.83
2022-07-28T01:33:59.365Z,63.92
2022-07-28T01:34:59.353Z,64.22
2022-07-28T01:35:59.362Z,64.02
2022-07-28T01:36:59.345Z,64.22
2022-07-28T01:37:59.353Z,64.31
2022-07-28T01:38:59.341Z,64.40
2022-07-28T01:39:59.364Z,64.12
2022-07-28T01:40:59.347Z,64.22
2022-07-28T01:41:59.362Z,64.31
2022-07-28T01:42:59.338Z,64.22
2022-07-28T01:43:59.347Z,64.79
2022-07-28T01:44:59.341Z,64.22
2022-07-28T01:45:59.400Z,64.89
2022-07-28T01:46:59.417Z,64.98
2022-07-28T01:47:59.360Z,64.98
2022-07-28T01:48:59.378Z,64.79
2022-07-28T01:49:59.345Z,64.59
2022-07-28T01:50:59.338Z,64.59
2022-07-28T01:51:59.345Z,65.08
2022-07-28T01:52:59.340Z,65.36
2022-07-28T01:53:59.354Z,65.17
2022-07-28T01:54:59.361Z,65.17
2022-07-28T01:55:59.339Z,65.26
2022-07-28T01:56:59.375Z,65.84
2022-07-28T01:57:59.336Z,65.75
2022-07-28T01:58:59.329Z,65.75
2022-07-28T01:59:59.332Z,65.71
2022-07-28T02:00:59.333Z,65.91
2022-07-28T02:01:59.438Z,66.09
2022-07-28T02:02:59.331Z,65.62
2022-07-28T02:03:59.325Z,65.71
2022-07-28T02:04:59.390Z,65.75
2022-07-28T02:05:59.331Z,66.00
2022-07-28T02:06:59.337Z,66.09
2022-07-28T02:07:59.325Z,66.00
2022-07-28T02:08:59.334Z,65.91
2022-07-28T02:09:59.341Z,65.81
2022-07-28T02:10:59.327Z,66.38
2022-07-28T02:11:59.317Z,66.86
2022-07-28T02:12:59.319Z,66.48
2022-07-28T02:13:59.322Z,66.48
2022-07-28T02:14:59.323Z,66.38
2022-07-28T02:15:59.339Z,66.48
2022-07-28T02:16:59.309Z,66.58
2022-07-28T02:17:59.321Z,66.58
2022-07-28T02:18:59.311Z,66.58
2022-07-28T02:19:59.309Z,66.86
2022-07-28T02:20:59.322Z,66.96
2022-07-28T02:21:59.314Z,67.34
2022-07-28T02:22:59.310Z,67.44
2022-07-28T02:23:59.318Z,67.72
2022-07-28T02:24:59.322Z,67.44
2022-07-28T02:25:59.316Z,67.54
2022-07-28T02:26:59.330Z,67.82
2022-07-28T02:27:59.312Z,67.91
2022-07-28T02:28:59.319Z,68.01
2022-07-28T02:29:59.327Z,68.30
2022-07-28T02:30:59.343Z,67.91
2022-07-28T02:31:59.302Z,67.91
2022-07-28T02:32:59.356Z,68.01
2022-07-28T02:34:02.223Z,68.68
2022-07-28T02:34:59.298Z,68.68
2022-07-28T02:35:59.311Z,68.49
2022-07-28T02:36:59.288Z,68.30
2022-07-28T02:37:59.315Z,68.30
2022-07-28T02:38:59.296Z,68.78
2022-07-28T02:40:00.611Z,68.30
2022-07-28T02:40:59.337Z,68.87
2022-07-28T02:41:59.302Z,68.68
2022-07-28T02:42:59.307Z,68.78
2022-07-28T02:43:59.324Z,68.68
2022-07-28T02:44:59.289Z,69.07
2022-07-28T02:45:59.345Z,69.17
2022-07-28T02:46:59.277Z,69.07
2022-07-28T02:47:59.289Z,69.07
2022-07-28T02:48:59.363Z,69.35
2022-07-28T02:49:59.295Z,69.74
2022-07-28T02:50:59.291Z,69.64
2022-07-28T02:51:59.290Z,69.74
2022-07-28T02:52:59.276Z,69.54
2022-07-28T02:53:59.313Z,69.74
2022-07-28T02:54:59.280Z,70.03
2022-07-28T02:55:59.278Z,70.31
2022-07-28T02:56:59.269Z,70.12
2022-07-28T02:57:59.275Z,70.21
2022-07-28T02:58:59.308Z,70.60
2022-07-28T02:59:59.271Z,70.70
2022-07-28T03:00:59.306Z,70.89
2022-07-28T03:01:59.422Z,71.08
2022-07-28T03:02:59.292Z,71.08
2022-07-28T03:03:59.280Z,70.89
2022-07-28T03:04:59.631Z,70.85
2022-07-28T03:05:59.264Z,70.76
2022-07-28T03:06:59.258Z,70.85
2022-07-28T03:07:59.279Z,71.08
2022-07-28T03:08:59.261Z,70.76
2022-07-28T03:09:59.253Z,71.14
2022-07-28T03:10:59.252Z,71.23
2022-07-28T03:11:59.250Z,70.95
2022-07-28T03:12:59.263Z,71.33
2022-07-28T03:13:59.251Z,71.23
2022-07-28T03:14:59.280Z,71.23
2022-07-28T03:15:59.256Z,71.14
2022-07-28T03:16:59.281Z,71.42
2022-07-28T03:17:59.274Z,71.14
2022-07-28T03:18:59.249Z,71.23
2022-07-28T03:19:59.246Z,71.04
2022-07-28T03:20:59.278Z,71.33
2022-07-28T03:21:59.250Z,71.04
2022-07-28T03:22:59.262Z,71.23
2022-07-28T03:23:59.231Z,71.42
2022-07-28T03:24:59.248Z,71.14
2022-07-28T03:25:59.230Z,71.14
2022-07-28T03:26:59.258Z,71.23
2022-07-28T03:27:59.242Z,71.42
2022-07-28T03:28:59.244Z,71.71
2022-07-28T03:30:03.592Z,71.91
2022-07-28T03:30:59.292Z,72.00
2022-07-28T03:31:59.235Z,71.81
2022-07-28T03:32:59.227Z,72.29
2022-07-28T03:33:59.247Z,71.81
2022-07-28T03:34:59.245Z,72.19
2022-07-28T03:35:59.221Z,72.09
2022-07-28T03:36:59.220Z,72.09
2022-07-28T03:37:59.223Z,72.29
2022-07-28T03:38:59.228Z,72.48
2022-07-28T03:39:59.234Z,72.29
2022-07-28T03:40:59.222Z,72.86
2022-07-28T03:41:59.217Z,72.58
2022-07-28T03:42:59.211Z,72.58
2022-07-28T03:43:59.220Z,72.67
2022-07-28T03:44:59.215Z,72.77
2022-07-28T03:45:59.251Z,72.86
2022-07-28T03:46:59.212Z,72.77
2022-07-28T03:47:59.206Z,72.67
2022-07-28T03:48:59.278Z,72.48
2022-07-28T03:49:59.214Z,72.38
2022-07-28T03:50:59.206Z,72.58
2022-07-28T03:51:59.213Z,72.77
2022-07-28T03:52:59.203Z,72.58
2022-07-28T03:53:59.224Z,72.09
2022-07-28T03:54:59.207Z,72.67
2022-07-28T03:55:59.221Z,72.48
2022-07-28T03:56:59.221Z,72.29
2022-07-28T03:57:59.215Z,72.77
2022-07-28T03:58:59.196Z,72.67
2022-07-28T03:59:59.188Z,72.67
2022-07-28T04:00:59.273Z,72.48
2022-07-28T04:01:59.213Z,72.67
2022-07-28T04:02:59.181Z,73.24
2022-07-28T04:03:59.185Z,73.15
2022-07-28T04:04:59.192Z,73.44
2022-07-28T04:05:59.182Z,73.24
2022-07-28T04:06:59.178Z,72.58
2022-07-28T04:07:59.189Z,72.67
2022-07-28T04:08:59.191Z,72.77
2022-07-28T04:09:59.184Z,73.24
2022-07-28T04:10:59.194Z,72.96
2022-07-28T04:11:59.174Z,73.15
2022-07-28T04:12:59.168Z,72.96
2022-07-28T04:13:59.170Z,73.34
2022-07-28T04:14:59.166Z,73.34
2022-07-28T04:15:59.171Z,73.34
2022-07-28T04:16:59.248Z,73.05
2022-07-28T04:17:59.190Z,73.24
2022-07-28T04:18:59.187Z,73.54
2022-07-28T04:19:59.190Z,73.63
2022-07-28T04:20:59.182Z,73.82
2022-07-28T04:21:59.179Z,73.63
2022-07-28T04:22:59.204Z,73.72
2022-07-28T04:24:01.956Z,73.63
2022-07-28T04:24:59.202Z,73.82
2022-07-28T04:25:59.159Z,73.91
2022-07-28T04:26:59.169Z,74.20
2022-07-28T04:27:59.153Z,74.20
2022-07-28T04:28:59.151Z,74.11
2022-07-28T04:29:59.151Z,74.01
2022-07-28T04:30:59.229Z,73.91
2022-07-28T04:31:59.148Z,73.91
2022-07-28T04:32:59.158Z,73.72
2022-07-28T04:33:59.163Z,73.91
2022-07-28T04:34:59.165Z,74.30
2022-07-28T04:35:59.167Z,74.20
2022-07-28T04:36:59.141Z,74.49
2022-07-28T04:37:59.136Z,74.01
2022-07-28T04:38:59.140Z,73.72
2022-07-28T04:39:59.135Z,73.63
2022-07-28T04:40:59.162Z,74.11
2022-07-28T04:41:59.140Z,73.91
2022-07-28T04:42:59.144Z,73.72
2022-07-28T04:43:59.140Z,73.34
2022-07-28T04:44:59.134Z,74.11
2022-07-28T04:45:59.165Z,74.01
2022-07-28T04:46:59.142Z,73.82
2022-07-28T04:47:59.134Z,74.24
2022-07-28T04:48:59.216Z,73.95
2022-07-28T04:49:59.146Z,73.86
2022-07-28T04:50:59.120Z,73.05
2022-07-28T04:51:59.120Z,73.19
2022-07-28T04:52:59.125Z,72.61
2022-07-28T04:53:59.126Z,72.71
2022-07-28T04:54:59.126Z,72.32
2022-07-28T04:55:59.169Z,72.23
2022-07-28T04:56:59.119Z,71.94
2022-07-28T04:57:59.148Z,71.94
2022-07-28T04:58:59.139Z,71.94
2022-07-28T04:59:59.144Z,72.23
2022-07-28T05:00:59.189Z,72.23
2022-07-28T05:01:59.120Z,71.94
2022-07-28T05:02:59.110Z,71.27
2022-07-28T05:03:59.109Z,71.46
2022-07-28T05:04:59.152Z,71.37
2022-07-28T05:05:59.112Z,71.27
2022-07-28T05:06:59.110Z,71.37
2022-07-28T05:07:59.111Z,71.17
2022-07-28T05:08:59.121Z,71.27
2022-07-28T05:09:59.111Z,71.17
2022-07-28T05:10:59.110Z,71.27
2022-07-28T05:11:59.122Z,71.27
2022-07-28T05:14:18.831Z,70.21
2022-07-28T05:15:18.778Z,70.12
2022-07-28T05:17:11.932Z,70.64
2022-07-28T05:18:11.905Z,70.44
2022-07-28T05:19:11.915Z,70.70
2022-07-28T05:20:11.904Z,70.41
2022-07-28T05:21:11.888Z,70.73
2022-07-28T05:22:11.950Z,70.64
2022-07-28T05:23:11.878Z,70.54
2022-07-28T05:24:12.229Z,70.25
2022-07-28T05:25:11.897Z,70.54
2022-07-28T05:26:11.895Z,69.87
2022-07-28T05:27:11.911Z,69.87
2022-07-28T05:28:11.907Z,69.48
2022-07-28T05:29:11.899Z,69.20
2022-07-28T05:30:11.921Z,69.01
2022-07-28T05:31:11.927Z,68.91
2022-07-28T05:32:17.477Z,69.01
2022-07-28T05:33:11.873Z,69.68
2022-07-28T05:34:12.204Z,69.48
2022-07-28T05:35:11.902Z,69.48
2022-07-28T05:36:11.895Z,69.20
2022-07-28T05:37:11.905Z,69.01
2022-07-28T05:38:11.890Z,69.10
2022-07-28T05:39:11.893Z,69.13
2022-07-28T05:40:11.903Z,69.23
2022-07-28T05:41:11.893Z,69.13
2022-07-28T05:42:11.905Z,68.75
2022-07-28T05:43:11.885Z,68.85
2022-07-28T05:44:12.290Z,68.59
2022-07-28T05:45:15.021Z,67.44
2022-07-28T05:46:11.929Z,67.44
2022-07-28T05:47:11.898Z,66.67
2022-07-28T05:48:11.888Z,66.71
2022-07-28T05:49:11.985Z,65.56
2022-07-28T05:50:11.901Z,65.46
2022-07-28T05:51:11.905Z,65.36
2022-07-28T05:52:11.933Z,64.72
2022-07-28T05:53:11.903Z,65.01
2022-07-28T05:54:12.235Z,64.25
2022-07-28T05:55:11.907Z,64.05
2022-07-28T05:56:11.912Z,63.51
2022-07-28T05:57:15.185Z,63.12
2022-07-28T05:58:11.933Z,62.35
2022-07-28T05:59:11.969Z,62.64
2022-07-28T06:00:11.953Z,62.58
2022-07-28T06:01:12.038Z,61.81
2022-07-28T06:02:12.039Z,61.52
2022-07-28T06:03:11.978Z,61.43
2022-07-28T06:04:28.187Z,61.33
2022-07-28T06:05:11.971Z,61.23
2022-07-28T06:06:15.169Z,60.88
2022-07-28T06:07:12.036Z,60.59
2022-07-28T06:08:12.029Z,59.94
2022-07-28T06:09:12.025Z,59.56
2022-07-28T06:10:12.066Z,59.08
2022-07-28T06:11:22.374Z,58.79
2022-07-28T06:12:12.085Z,58.53
2022-07-28T06:13:12.114Z,57.57
2022-07-28T06:14:12.400Z,57.37
2022-07-28T06:15:12.128Z,56.92
2022-07-28T06:16:13.390Z,57.12
2022-07-28T06:17:12.151Z,56.63
2022-07-28T06:18:12.140Z,55.31
2022-07-28T06:19:12.169Z,54.74
2022-07-28T06:20:12.198Z,54.83
2022-07-28T06:21:12.188Z,54.93
2022-07-28T06:22:12.212Z,55.12
2022-07-28T06:23:12.201Z,55.22
2022-07-28T06:24:12.587Z,55.22
2022-07-28T06:25:12.214Z,54.47
2022-07-28T06:26:12.240Z,54.18
2022-07-28T06:27:12.278Z,53.89
2022-07-28T06:28:12.258Z,53.44
2022-07-28T06:29:12.296Z,53.25
2022-07-28T06:30:12.305Z,52.47
2022-07-28T06:31:12.355Z,51.80
2022-07-28T06:32:12.412Z,51.61
2022-07-28T06:33:17.014Z,51.61
2022-07-28T06:34:12.686Z,51.41
2022-07-28T06:35:12.390Z,51.05
2022-07-28T06:36:12.361Z,50.64
2022-07-28T06:37:12.405Z,50.54
2022-07-28T06:38:12.409Z,50.64
2022-07-28T06:39:12.426Z,51.03
2022-07-28T06:40:12.453Z,51.32
2022-07-28T06:41:12.469Z,51.70
2022-07-28T06:42:12.478Z,51.44
2022-07-28T06:43:12.490Z,51.05
2022-07-28T06:44:12.722Z,50.54
2022-07-28T06:45:20.990Z,50.74
2022-07-28T06:46:12.515Z,51.03
2022-07-28T06:47:12.618Z,50.93
2022-07-28T06:48:12.539Z,51.80
2022-07-28T06:49:13.044Z,52.19
2022-07-28T06:50:25.162Z,52.21
2022-07-28T06:51:12.595Z,52.50
2022-07-28T06:52:12.606Z,51.73
2022-07-28T06:53:12.604Z,51.44
2022-07-28T06:54:13.207Z,50.86
2022-07-28T06:55:12.626Z,50.69
2022-07-28T06:56:13.850Z,50.38
2022-07-28T06:57:12.656Z,50.47
2022-07-28T06:58:12.676Z,50.67
2022-07-28T06:59:13.031Z,50.57
2022-07-28T07:00:12.703Z,50.57
2022-07-28T07:01:12.796Z,50.47
2022-07-28T07:02:12.738Z,50.57
2022-07-28T07:03:12.729Z,50.96
2022-07-28T07:04:13.200Z,50.76
2022-07-28T07:05:12.776Z,50.76
2022-07-28T07:06:12.807Z,51.12
2022-07-28T07:07:16.783Z,51.73
2022-07-28T07:08:12.810Z,51.34
2022-07-28T07:09:12.823Z,51.44
2022-07-28T07:10:12.827Z,50.96
2022-07-28T07:11:12.831Z,50.67
2022-07-28T07:12:12.856Z,50.76
2022-07-28T07:13:13.530Z,50.35
2022-07-28T07:14:13.281Z,50.54
2022-07-28T07:15:12.884Z,50.84
2022-07-28T07:16:12.900Z,51.22
2022-07-28T07:17:12.928Z,51.51
2022-07-28T07:18:12.896Z,51.70
2022-07-28T07:19:15.895Z,50.76
2022-07-28T07:20:12.947Z,51.32
2022-07-28T07:21:12.940Z,50.86
2022-07-28T07:22:12.970Z,50.86
2022-07-28T07:23:12.995Z,50.76
2022-07-28T07:24:13.199Z,50.76
2022-07-28T07:25:13.004Z,50.47
2022-07-28T07:26:13.048Z,50.18
2022-07-28T07:27:13.047Z,50.09
2022-07-28T07:28:13.028Z,50.38
2022-07-28T07:29:13.024Z,50.47
2022-07-28T07:30:13.069Z,50.57
2022-07-28T07:31:13.120Z,51.05
2022-07-28T07:32:13.092Z,50.96
2022-07-28T07:33:13.086Z,51.25
2022-07-28T07:34:13.377Z,51.25
2022-07-28T07:35:13.106Z,51.07
2022-07-28T07:36:13.120Z,50.21
2022-07-28T07:37:13.130Z,49.63
2022-07-28T07:38:13.137Z,49.92
2022-07-28T07:39:13.160Z,49.73
2022-07-28T07:40:13.191Z,50.01
2022-07-28T07:41:13.177Z,50.40
2022-07-28T07:42:13.205Z,50.40
2022-07-28T07:43:13.207Z,49.63
2022-07-28T07:44:13.562Z,49.34
2022-07-28T07:45:13.219Z,49.05
2022-07-28T07:46:13.288Z,49.05
2022-07-28T07:47:13.274Z,48.37
2022-07-28T07:48:13.249Z,48.18
2022-07-28T07:49:13.352Z,48.66
2022-07-28T07:50:13.327Z,49.15
2022-07-28T07:51:15.493Z,49.34
2022-07-28T07:52:13.321Z,48.57
2022-07-28T07:53:13.339Z,48.47
2022-07-28T07:54:13.525Z,48.28
2022-07-28T07:55:13.357Z,49.05
2022-07-28T07:56:13.368Z,49.63
2022-07-28T07:57:13.443Z,49.44
2022-07-28T07:58:13.385Z,49.34
2022-07-28T07:59:13.391Z,49.34
2022-07-28T08:00:28.197Z,48.86
2022-07-28T08:01:13.413Z,49.05
2022-07-28T08:02:13.522Z,48.95
2022-07-28T08:03:14.094Z,49.60
2022-07-28T08:04:13.916Z,49.82
2022-07-28T08:05:13.465Z,49.63
2022-07-28T08:06:13.508Z,49.63
2022-07-28T08:07:13.542Z,49.24
2022-07-28T08:08:13.487Z,48.28
2022-07-28T08:09:13.511Z,47.80
2022-07-28T08:10:13.518Z,47.50
2022-07-28T08:11:13.504Z,48.37
2022-07-28T08:12:13.547Z,48.37
2022-07-28T08:13:13.527Z,47.89
2022-07-28T08:14:13.912Z,47.89
2022-07-28T08:15:13.602Z,47.89
2022-07-28T08:16:13.659Z,48.44
2022-07-28T08:17:13.576Z,48.44
2022-07-28T08:18:13.610Z,48.44
2022-07-28T08:19:13.600Z,48.16
2022-07-28T08:20:13.625Z,48.35
2022-07-28T08:21:13.622Z,48.61
2022-07-28T08:22:13.639Z,48.71
2022-07-28T08:23:13.637Z,48.83
2022-07-28T08:24:17.747Z,49.22
2022-07-28T08:25:13.653Z,48.93
2022-07-28T08:26:13.671Z,48.25
2022-07-28T08:27:13.682Z,47.77
2022-07-28T08:28:13.691Z,47.77
2022-07-28T08:29:13.682Z,47.67
2022-07-28T08:30:13.706Z,48.28
2022-07-28T08:31:13.756Z,48.47
2022-07-28T08:32:13.721Z,48.47
2022-07-28T08:33:13.733Z,48.47
2022-07-28T08:34:29.879Z,48.57
2022-07-28T08:35:32.312Z,48.39
2022-07-28T08:36:13.737Z,47.70
2022-07-28T08:37:13.767Z,48.11
2022-07-28T08:38:13.749Z,48.01
2022-07-28T08:39:13.773Z,47.14
2022-07-28T08:40:13.776Z,45.79
2022-07-28T08:41:13.774Z,45.98
2022-07-28T08:42:13.799Z,46.06
2022-07-28T08:43:13.795Z,46.06
2022-07-28T08:44:14.098Z,46.34
2022-07-28T08:45:13.801Z,47.41
2022-07-28T08:46:13.858Z,47.38
2022-07-28T08:47:13.816Z,47.38
2022-07-28T08:48:13.819Z,47.29
2022-07-28T08:49:14.919Z,47.77
2022-07-28T08:50:13.852Z,46.71
2022-07-28T08:51:13.841Z,46.61
2022-07-28T08:52:13.862Z,46.71
2022-07-28T08:53:13.852Z,45.55
2022-07-28T08:54:14.171Z,46.71
2022-07-28T08:55:19.122Z,47.29
2022-07-28T08:56:13.863Z,46.81
2022-07-28T08:57:13.879Z,46.44
2022-07-28T08:58:20.847Z,45.65
2022-07-28T08:59:13.890Z,46.06
2022-07-28T09:00:13.910Z,46.81
2022-07-28T09:01:13.908Z,46.25
2022-07-28T09:02:14.042Z,46.90
2022-07-28T09:03:14.022Z,46.25
2022-07-28T09:04:14.216Z,46.25
2022-07-28T09:05:13.924Z,46.06
2022-07-28T09:06:13.924Z,46.25
2022-07-28T09:07:13.946Z,45.65
2022-07-28T09:08:13.944Z,46.06
2022-07-28T09:09:13.946Z,45.96
2022-07-28T09:10:13.980Z,45.76
2022-07-28T09:11:13.956Z,46.34
2022-07-28T09:12:14.008Z,45.86
2022-07-28T09:13:13.990Z,45.40
2022-07-28T09:14:14.481Z,45.21
2022-07-28T09:15:13.979Z,45.59
2022-07-28T09:16:14.019Z,45.31
2022-07-28T09:17:14.013Z,45.31
2022-07-28T09:18:13.996Z,45.79
2022-07-28T09:19:14.002Z,44.73
2022-07-28T09:20:14.055Z,44.53
2022-07-28T09:21:13.995Z,44.92
2022-07-28T09:22:14.038Z,45.09
2022-07-28T09:23:42.706Z,45.86
2022-07-28T09:24:14.281Z,45.38
2022-07-28T09:25:14.027Z,45.38
2022-07-28T09:26:14.038Z,45.48
2022-07-28T09:27:14.063Z,46.15
2022-07-28T09:28:14.049Z,45.67
2022-07-28T09:29:14.050Z,46.34
2022-07-28T09:30:14.064Z,46.81
2022-07-28T09:31:14.122Z,45.94
2022-07-28T09:32:14.083Z,45.36
2022-07-28T09:33:43.339Z,45.94
2022-07-28T09:34:14.367Z,46.61
2022-07-28T09:35:14.080Z,47.29
2022-07-28T09:36:14.091Z,47.87
2022-07-28T09:37:14.102Z,47.00
2022-07-28T09:38:14.104Z,46.33
2022-07-28T09:39:14.094Z,45.48
2022-07-28T09:40:14.104Z,45.48
2022-07-28T09:41:14.097Z,45.94
2022-07-28T09:42:14.131Z,45.45
2022-07-28T09:43:14.113Z,46.03
2022-07-28T09:44:14.547Z,45.94
2022-07-28T09:45:23.405Z,46.13
2022-07-28T09:46:14.310Z,45.94
2022-07-28T09:47:14.305Z,45.26
2022-07-28T09:48:14.366Z,45.94
2022-07-28T09:49:14.274Z,46.71
2022-07-28T09:50:14.168Z,46.51
2022-07-28T09:51:14.209Z,46.44
2022-07-28T09:52:14.170Z,46.54
2022-07-28T09:53:14.168Z,47.12
2022-07-28T09:54:14.816Z,46.83
2022-07-28T09:55:14.186Z,46.85
2022-07-28T09:56:14.203Z,46.64
2022-07-28T09:57:14.204Z,45.86
2022-07-28T09:58:14.208Z,46.08
2022-07-28T09:59:15.043Z,45.98
2022-07-28T10:00:14.224Z,45.89
2022-07-28T10:01:14.273Z,45.98
2022-07-28T10:02:14.345Z,45.89
2022-07-28T10:03:14.286Z,45.98
2022-07-28T10:04:14.521Z,44.53
2022-07-28T10:05:14.267Z,44.51
2022-07-28T10:06:14.242Z,44.53
2022-07-28T10:07:14.354Z,44.90
2022-07-28T10:08:14.364Z,45.18
2022-07-28T10:09:14.242Z,45.48
2022-07-28T10:10:14.264Z,45.67
2022-07-28T10:11:14.248Z,47.02
2022-07-28T10:12:14.283Z,46.73
2022-07-28T10:13:14.264Z,46.64
2022-07-28T10:14:14.614Z,46.92
2022-07-28T10:15:14.285Z,45.67
2022-07-28T10:16:14.355Z,45.96
2022-07-28T10:17:14.284Z,45.48
2022-07-28T10:18:14.296Z,45.67
2022-07-28T10:19:14.296Z,45.86
2022-07-28T10:20:14.320Z,45.86
2022-07-28T10:21:14.311Z,45.18
2022-07-28T10:22:14.344Z,45.18
2022-07-28T10:23:14.331Z,45.48
2022-07-28T10:24:14.801Z,44.80
2022-07-28T10:25:14.331Z,44.80
2022-07-28T10:26:14.346Z,44.42
2022-07-28T10:27:14.347Z,44.80
2022-07-28T10:28:14.326Z,45.00
2022-07-28T10:29:14.334Z,45.00
2022-07-28T10:30:14.368Z,45.28
2022-07-28T10:31:14.398Z,45.57
2022-07-28T10:32:14.369Z,45.67
2022-07-28T10:33:14.358Z,45.38
2022-07-28T10:34:16.493Z,45.48
2022-07-28T10:35:14.414Z,45.50
2022-07-28T10:36:14.407Z,45.48
2022-07-28T10:37:14.403Z,45.50
2022-07-28T10:38:14.378Z,44.32
2022-07-28T10:39:14.396Z,43.37
2022-07-28T10:40:14.404Z,44.12
2022-07-28T10:41:14.404Z,44.90
2022-07-28T10:42:14.416Z,45.48
2022-07-28T10:43:14.419Z,45.48
2022-07-28T10:44:14.794Z,45.38
2022-07-28T10:45:14.441Z,45.86
2022-07-28T10:46:16.341Z,45.38
2022-07-28T10:47:18.443Z,45.28
2022-07-28T10:48:14.439Z,44.90
2022-07-28T10:49:14.515Z,44.49
2022-07-28T10:50:14.558Z,44.39
2022-07-28T10:51:14.454Z,44.39
2022-07-28T10:52:30.721Z,44.87
2022-07-28T10:53:14.474Z,44.10
2022-07-28T10:54:17.634Z,44.49
2022-07-28T10:55:14.514Z,44.10
2022-07-28T10:56:14.482Z,44.78
2022-07-28T10:57:14.501Z,45.14
2022-07-28T10:58:14.498Z,45.82
2022-07-28T10:59:14.503Z,46.69
2022-07-28T11:00:24.422Z,46.40
2022-07-28T11:01:32.602Z,46.11
2022-07-28T11:02:14.639Z,46.59
2022-07-28T11:03:14.576Z,46.49
2022-07-28T11:04:15.059Z,46.40
2022-07-28T11:05:14.514Z,46.78
2022-07-28T11:06:14.517Z,47.07
2022-07-28T11:07:14.533Z,47.27
2022-07-28T11:08:14.525Z,47.94
2022-07-28T11:09:14.523Z,47.65
2022-07-28T11:10:14.588Z,48.42
2022-07-28T11:11:14.519Z,46.78
2022-07-28T11:12:14.554Z,46.18
2022-07-28T11:13:17.435Z,45.89
2022-07-28T11:14:14.857Z,46.76
2022-07-28T11:15:15.670Z,46.37
2022-07-28T11:16:14.684Z,46.28
2022-07-28T11:17:14.600Z,46.66
2022-07-28T11:18:14.610Z,47.05
2022-07-28T11:19:40.545Z,48.01
2022-07-28T11:20:16.810Z,47.89
2022-07-28T11:21:16.524Z,47.63
2022-07-28T11:22:14.588Z,47.82
2022-07-28T11:23:14.585Z,47.44
2022-07-28T11:24:17.902Z,47.63
2022-07-28T11:25:20.862Z,47.53
2022-07-28T11:26:14.587Z,47.72
2022-07-28T11:27:14.591Z,46.76
2022-07-28T11:28:14.604Z,47.24
2022-07-28T11:29:14.695Z,47.07
2022-07-28T11:30:14.634Z,46.78
2022-07-28T11:31:14.915Z,46.78
2022-07-28T11:32:14.628Z,46.59
2022-07-28T11:33:14.617Z,46.49
2022-07-28T11:34:14.980Z,46.59
2022-07-28T11:35:14.680Z,46.69
2022-07-28T11:36:14.626Z,46.97
2022-07-28T11:37:15.389Z,45.82
2022-07-28T11:38:14.638Z,45.34
2022-07-28T11:39:14.671Z,45.24
2022-07-28T11:40:14.640Z,45.14
2022-07-28T11:41:14.652Z,45.43
2022-07-28T11:42:14.655Z,46.01
2022-07-28T11:43:14.648Z,46.11
2022-07-28T11:44:14.860Z,45.92
2022-07-28T11:45:14.652Z,46.11
2022-07-28T11:46:14.695Z,45.92
2022-07-28T11:47:14.679Z,45.62
2022-07-28T11:48:14.669Z,45.53
2022-07-28T11:49:16.655Z,45.82
2022-07-28T11:50:14.695Z,45.82
2022-07-28T11:51:14.692Z,45.34
2022-07-28T11:52:14.700Z,45.82
2022-07-28T11:53:14.704Z,45.53
2022-07-28T11:54:15.042Z,45.24
2022-07-28T11:55:14.702Z,46.01
2022-07-28T11:56:14.734Z,46.78
2022-07-28T11:57:14.720Z,47.85
2022-07-28T11:58:14.723Z,46.33
2022-07-28T11:59:14.735Z,46.01
2022-07-28T12:00:14.731Z,46.81
2022-07-28T12:01:17.476Z,46.01
2022-07-28T12:02:14.823Z,45.26
2022-07-28T12:03:14.744Z,44.68
2022-07-28T12:04:15.102Z,44.56
2022-07-28T12:05:14.872Z,45.17
2022-07-28T12:06:14.746Z,44.20
2022-07-28T12:07:14.755Z,44.49
2022-07-28T12:08:14.789Z,44.18
2022-07-28T12:09:14.734Z,44.10
2022-07-28T12:10:25.981Z,43.72
2022-07-28T12:11:14.816Z,44.08
2022-07-28T12:12:14.764Z,43.91
2022-07-28T12:13:14.774Z,43.91
2022-07-28T12:14:15.122Z,43.98
2022-07-28T12:15:14.772Z,43.60
2022-07-28T12:16:14.836Z,43.33
2022-07-28T12:17:14.849Z,42.75
2022-07-28T12:18:14.792Z,42.56
2022-07-28T12:19:14.868Z,42.44
2022-07-28T12:20:14.832Z,42.75
2022-07-28T12:21:14.808Z,42.54
2022-07-28T12:22:15.585Z,43.14
2022-07-28T12:23:14.805Z,43.62
2022-07-28T12:24:15.166Z,43.43
2022-07-28T12:25:14.811Z,43.14
2022-07-28T12:26:14.827Z,43.33
2022-07-28T12:27:16.589Z,43.52
2022-07-28T12:28:14.825Z,43.43
2022-07-28T12:29:14.861Z,43.43
2022-07-28T12:30:14.858Z,43.52
2022-07-28T12:31:15.085Z,43.72
2022-07-28T12:32:14.901Z,43.72
2022-07-28T12:33:14.880Z,43.72
2022-07-28T12:34:15.311Z,43.72
2022-07-28T12:35:14.890Z,43.72
2022-07-28T12:36:14.870Z,43.81
2022-07-28T12:37:14.875Z,44.01
2022-07-28T12:38:14.851Z,44.10
2022-07-28T12:39:14.960Z,43.52
2022-07-28T12:40:14.891Z,43.43
2022-07-28T12:41:14.925Z,43.62
2022-07-28T12:42:14.904Z,43.43
2022-07-28T12:43:14.871Z,43.52
2022-07-28T12:44:15.201Z,43.33
2022-07-28T12:45:14.902Z,43.62
2022-07-28T12:46:14.950Z,43.52
2022-07-28T12:47:14.919Z,43.33
2022-07-28T12:48:14.918Z,43.43
2022-07-28T12:49:15.015Z,43.43
2022-07-28T12:50:14.934Z,42.97
2022-07-28T12:51:14.916Z,42.58
2022-07-28T12:52:14.940Z,42.46
2022-07-28T12:53:14.949Z,42.46
2022-07-28T12:54:15.219Z,42.48
2022-07-28T12:55:14.928Z,42.94